EGXW - Wainfleet
Distance from station: E 5mi, 14km
Updated: 08/15/2018 3:50am
Partly Cloudy
Partly Cloudy
 Wind from WSW
Wind: WSW 13 mph , 20 km/h
Temperature: 70°F , 21°C
Dew Point: 57°F , 14°C
Humidity: 64%
Barometer: 29.94 inHg , 1014 hPa
Clouds: Partly Cloudy
Visibility: 6 miles , 10 km
Cloud details: Partly Cloudy 2500 ft
2018/08/15 10:50 EGXW 151050Z 24011KT 9999 SCT025 21/14 Q1014 BLU NOSIG